Time;durP1;ratioP1;P1;durP2;ratioP2;P2;SDS_P1;SDS_P2;PMS_P1;PMS_P2;Temp;Humidity;BMP_temperature;BMP_pressure;BME280_temperature;BME280_humidity;BME280_pressure;Samples;Min_cycle;Max_cycle;Signal;HPM_P1;HPM_P2
2022/08/15 00:01:18;;;;;;;9.05;4.45;;;;;;;20.55;63.99;99882.03;5046550;28;20037;-51
2022/08/15 00:03:55;;;;;;;7.05;5.07;;;;;;;20.51;64.34;99881.31;5048035;28;20052;-47
2022/08/15 00:06:32;;;;;;;8.00;4.72;;;;;;;20.51;64.71;99878.50;5043995;28;20029;-51
2022/08/15 00:09:10;;;;;;;7.93;4.53;;;;;;;20.48;64.68;99879.38;5048300;28;20119;-43
2022/08/15 00:11:40;;;;;;;7.43;4.60;;;;;;;20.38;65.26;99880.38;5046375;28;20045;-46
2022/08/15 00:14:13;;;;;;;7.90;5.70;;;;;;;20.31;65.83;99863.63;5042958;28;20053;-46
2022/08/15 00:16:57;;;;;;;7.60;5.82;;;;;;;20.20;66.21;99865.88;5046454;28;20053;-44
2022/08/15 00:19:29;;;;;;;8.23;4.45;;;;;;;20.12;67.08;99862.38;5046851;28;20558;-47
2022/08/15 00:22:06;;;;;;;4.78;4.13;;;;;;;20.07;67.25;99864.91;5046883;28;20044;-44
2022/08/15 00:24:49;;;;;;;6.65;4.03;;;;;;;20.00;67.69;99861.00;5048231;28;20052;-47
2022/08/15 00:27:19;;;;;;;6.72;5.03;;;;;;;19.91;68.15;99859.97;5049135;28;20402;-44
2022/08/15 00:29:52;;;;;;;5.18;4.35;;;;;;;19.86;68.53;99850.03;5047916;28;20171;-47
2022/08/15 00:32:23;;;;;;;7.72;5.30;;;;;;;19.83;69.03;99841.69;5045768;28;20491;-47
2022/08/15 00:37:56;;;;;;;6.78;4.57;;;;;;;19.75;69.36;99852.22;5049172;28;20053;-48
2022/08/15 00:43:36;;;;;;;4.90;3.83;;;;;;;19.78;69.25;99840.16;5035460;28;20159;-45
2022/08/15 00:46:08;;;;;;;6.70;4.25;;;;;;;19.73;69.71;99843.44;5049160;28;20199;-46
2022/08/15 00:48:46;;;;;;;27.70;5.57;;;;;;;19.66;69.72;99835.16;5049033;28;20040;-44
2022/08/15 00:51:22;;;;;;;4.75;4.35;;;;;;;19.63;70.09;99827.59;5049327;28;20041;-44
2022/08/15 00:54:05;;;;;;;4.80;4.40;;;;;;;19.55;70.55;99826.13;5048163;28;20049;-45
2022/08/15 00:57:04;;;;;;;6.18;4.53;;;;;;;19.51;71.07;99808.56;5043787;28;20054;-46
2022/08/15 00:59:43;;;;;;;9.20;5.13;;;;;;;19.46;71.41;99803.41;4996643;28;20114;-44
2022/08/15 01:02:25;;;;;;;5.78;4.88;;;;;;;19.44;71.79;99786.22;5036237;28;20053;-45
2022/08/15 01:05:06;;;;;;;9.65;6.70;;;;;;;19.44;72.04;99783.41;5047765;28;20507;-45
2022/08/15 01:07:43;;;;;;;;;;;;;;;19.38;71.76;99780.31;5049171;28;20053;-44
2022/08/15 01:10:12;;;;;;;8.93;5.75;;;;;;;19.36;71.94;99779.13;5048595;28;19924;-43
2022/08/15 01:12:51;;;;;;;7.18;5.38;;;;;;;19.35;72.25;99772.69;5048714;28;20529;-43
2022/08/15 01:15:19;;;;;;;7.38;6.10;;;;;;;19.35;72.48;99766.31;5049006;28;20143;-49
2022/08/15 01:17:55;;;;;;;6.78;5.85;;;;;;;19.34;72.33;99761.91;5048232;28;20098;-48
2022/08/15 01:20:26;;;;;;;6.82;5.70;;;;;;;19.35;72.70;99753.06;5048692;28;20119;-44
2022/08/15 01:23:03;;;;;;;11.00;5.30;;;;;;;19.35;72.57;99743.88;5048263;28;20061;-44
2022/08/15 01:25:35;;;;;;;9.73;5.32;;;;;;;19.33;72.36;99743.47;5047970;28;20369;-45
2022/08/15 01:28:30;;;;;;;9.95;5.97;;;;;;;19.26;72.34;99744.41;5040157;28;20405;-43
2022/08/15 01:31:18;;;;;;;5.38;4.60;;;;;;;19.18;72.25;99759.00;5045194;28;20486;-44
2022/08/15 01:33:49;;;;;;;5.43;4.85;;;;;;;19.19;72.07;99774.63;5034119;28;20167;-45
2022/08/15 01:36:20;;;;;;;5.72;5.15;;;;;;;19.20;72.19;99776.19;5047833;28;20052;-44
2022/08/15 01:39:10;;;;;;;5.18;4.68;;;;;;;19.24;72.22;99782.53;5047166;28;20048;-45
2022/08/15 01:41:57;;;;;;;7.00;5.47;;;;;;;19.31;72.10;99786.00;5042141;28;20406;-42
2022/08/15 01:44:33;;;;;;;6.28;4.60;;;;;;;19.35;71.96;99794.38;5048446;28;20088;-42
2022/08/15 01:47:29;;;;;;;5.95;4.93;;;;;;;19.36;71.94;99784.72;5046157;28;20099;-46
2022/08/15 01:50:27;;;;;;;7.28;5.80;;;;;;;19.27;72.49;99781.69;5057127;28;20524;-44
2022/08/15 01:53:14;;;;;;;5.88;5.35;;;;;;;19.18;73.28;99773.81;5047032;28;20518;-49
2022/08/15 01:55:55;;;;;;;5.78;4.93;;;;;;;19.21;73.16;99767.34;5028754;28;20396;-47
2022/08/15 01:58:24;;;;;;;8.05;5.70;;;;;;;19.24;72.88;99755.28;5034367;28;20127;-45
2022/08/15 02:01:01;;;;;;;5.85;5.25;;;;;;;19.23;72.95;99758.50;5045664;28;20387;-48
2022/08/15 02:03:35;;;;;;;8.10;5.03;;;;;;;19.15;73.32;99755.03;5042359;28;20524;-45
2022/08/15 02:06:24;;;;;;;5.68;4.88;;;;;;;19.18;73.48;99753.38;5046156;28;20037;-45
2022/08/15 02:09:07;;;;;;;6.88;4.53;;;;;;;19.15;73.37;99751.41;5043340;28;20144;-45
2022/08/15 02:11:56;;;;;;;8.57;5.95;;;;;;;19.11;73.43;99745.09;5042917;28;20380;-44
2022/08/15 02:14:31;;;;;;;5.25;4.75;;;;;;;19.08;74.09;99752.34;5043918;28;20044;-46
2022/08/15 02:17:05;;;;;;;5.75;5.00;;;;;;;19.11;73.92;99750.69;5045342;28;20498;-46
2022/08/15 02:19:32;;;;;;;9.35;5.72;;;;;;;19.06;74.21;99748.38;5044588;28;20041;-46
2022/08/15 02:22:12;;;;;;;11.63;5.43;;;;;;;19.02;74.38;99742.03;5056945;28;20123;-45
2022/08/15 02:24:57;;;;;;;6.25;5.07;;;;;;;19.10;74.11;99732.28;5034468;28;20057;-45
2022/08/15 02:27:27;;;;;;;7.20;4.97;;;;;;;19.11;74.17;99737.47;5046737;28;20085;-47
2022/08/15 02:29:55;;;;;;;6.00;5.22;;;;;;;19.07;74.45;99733.13;5046639;28;20033;-45
2022/08/15 02:32:23;;;;;;;6.00;5.43;;;;;;;19.05;74.59;99738.38;5045930;28;20525;-45
2022/08/15 02:34:59;;;;;;;8.43;5.22;;;;;;;19.10;74.31;99737.88;5038948;28;20510;-44
2022/08/15 02:37:30;;;;;;;6.50;5.18;;;;;;;19.12;74.25;99741.84;5043386;28;20143;-43
2022/08/15 02:40:07;;;;;;;6.85;5.95;;;;;;;19.13;73.96;99749.06;5046688;28;20067;-46
2022/08/15 02:42:53;;;;;;;9.25;5.82;;;;;;;19.16;74.08;99747.41;5045407;28;20044;-44
2022/08/15 02:45:22;;;;;;;9.05;6.20;;;;;;;19.16;74.18;99733.38;5050544;28;20116;-42
2022/08/15 02:47:48;;;;;;;7.82;7.03;;;;;;;19.15;74.55;99745.81;5049567;28;20047;-46
2022/08/15 02:50:16;;;;;;;8.63;7.07;;;;;;;19.10;74.64;99727.47;5047004;28;20049;-45
2022/08/15 02:52:48;;;;;;;9.07;7.35;;;;;;;19.08;75.18;99715.09;5050799;28;20055;-47
2022/08/15 02:55:20;;;;;;;8.90;7.45;;;;;;;19.05;75.11;99690.69;5050050;28;20047;-43
2022/08/15 02:57:50;;;;;;;8.10;7.30;;;;;;;19.00;75.16;99672.34;5050880;28;20128;-48
2022/08/15 03:00:35;;;;;;;9.50;7.57;;;;;;;18.92;75.19;99661.66;5137148;23;20045;-44
2022/08/15 03:03:11;;;;;;;8.63;6.90;;;;;;;18.87;75.31;99636.91;4967640;28;20046;-51
2022/08/15 03:05:44;;;;;;;8.65;6.78;;;;;;;18.81;75.68;99643.00;4957582;28;20110;-46
2022/08/15 03:08:21;;;;;;;10.90;7.40;;;;;;;18.74;76.13;99634.72;4975619;28;20092;-52
2022/08/15 03:10:47;;;;;;;11.68;7.10;;;;;;;18.73;76.34;99638.75;4976122;28;20449;-45
2022/08/15 03:13:22;;;;;;;7.88;5.82;;;;;;;18.72;76.53;99641.97;4970254;28;20057;-44
2022/08/15 03:15:52;;;;;;;8.18;6.28;;;;;;;18.73;76.60;99635.94;4972802;28;20043;-46
2022/08/15 03:18:27;;;;;;;9.25;5.78;;;;;;;18.75;76.65;99638.31;4971704;28;20042;-48
2022/08/15 03:21:00;;;;;;;7.20;6.50;;;;;;;18.73;77.03;99641.56;4982733;28;20431;-44
2022/08/15 03:23:31;;;;;;;8.80;7.03;;;;;;;18.70;77.28;99642.41;4970652;28;20042;-49
2022/08/15 03:26:11;;;;;;;7.55;5.75;;;;;;;18.71;77.29;99646.00;4978436;28;20382;-45
2022/08/15 03:28:53;;;;;;;6.00;5.40;;;;;;;18.76;76.95;99640.72;4975928;28;20047;-43
2022/08/15 03:31:31;;;;;;;7.13;5.55;;;;;;;18.79;76.84;99648.28;4976208;28;20579;-45
2022/08/15 03:34:14;;;;;;;6.45;5.85;;;;;;;18.78;76.83;99649.47;4979906;28;20046;-49
2022/08/15 03:36:45;;;;;;;10.30;6.45;;;;;;;18.80;76.39;99652.63;4983059;28;20531;-43
2022/08/15 03:39:20;;;;;;;7.57;5.90;;;;;;;18.76;76.76;99653.94;4968868;28;20077;-51
2022/08/15 03:41:47;;;;;;;8.02;5.75;;;;;;;18.76;76.94;99645.50;4975903;28;20050;-44
2022/08/15 03:44:23;;;;;;;7.75;6.43;;;;;;;18.72;77.34;99664.41;4945123;28;20556;-50
2022/08/15 03:46:52;;;;;;;8.20;6.95;;;;;;;18.70;77.52;99658.44;4950414;28;20074;-45
2022/08/15 03:49:19;;;;;;;7.63;6.60;;;;;;;18.68;77.70;99656.06;4970634;28;20039;-45
2022/08/15 03:52:07;;;;;;;11.30;8.38;;;;;;;18.71;77.71;99655.22;4958289;28;20038;-44
2022/08/15 03:54:35;;;;;;;9.18;7.18;;;;;;;18.75;77.62;99655.94;4970531;28;20050;-45
2022/08/15 03:57:06;;;;;;;10.65;7.25;;;;;;;18.70;77.88;99653.63;4972962;28;20401;-46
2022/08/15 03:59:34;;;;;;;7.97;7.18;;;;;;;18.65;78.13;99656.91;4974901;28;20519;-47
2022/08/15 04:02:12;;;;;;;10.20;8.57;;;;;;;18.65;78.24;99656.91;4968960;28;20047;-43
2022/08/15 04:04:57;;;;;;;9.93;7.85;;;;;;;18.65;78.42;99656.91;4969486;28;20050;-46
2022/08/15 04:07:26;;;;;;;8.80;7.05;;;;;;;18.64;78.60;99655.31;4969712;28;20093;-47
2022/08/15 04:10:11;;;;;;;9.60;8.05;;;;;;;18.65;78.55;99658.91;4967685;28;20046;-43
2022/08/15 04:12:59;;;;;;;8.60;7.70;;;;;;;18.67;78.24;99664.88;4968699;28;20034;-44
2022/08/15 04:15:27;;;;;;;9.45;7.50;;;;;;;18.64;78.51;99654.50;4970901;28;20303;-45
2022/08/15 04:17:56;;;;;;;9.30;7.07;;;;;;;18.67;78.48;99656.47;4964685;28;20046;-45
2022/08/15 04:20:30;;;;;;;9.82;6.78;;;;;;;18.72;78.51;99655.97;4970494;28;20046;-46
2022/08/15 04:22:59;;;;;;;11.88;8.00;;;;;;;18.67;78.54;99660.06;4966618;28;20039;-44
2022/08/15 04:25:31;;;;;;;9.75;8.75;;;;;;;18.64;78.65;99660.13;4970205;28;20077;-44
2022/08/15 04:28:10;;;;;;;8.38;7.57;;;;;;;18.66;78.41;99654.91;4970106;28;20039;-43
2022/08/15 04:31:00;;;;;;;9.32;7.20;;;;;;;18.66;78.56;99644.50;4958166;28;20049;-48
2022/08/15 04:33:31;;;;;;;9.57;7.15;;;;;;;18.63;78.26;99642.53;4968545;28;20050;-44
2022/08/15 04:36:19;;;;;;;8.40;7.60;;;;;;;18.63;78.53;99648.13;4968240;28;20093;-48
2022/08/15 04:38:58;;;;;;;11.02;7.05;;;;;;;18.59;78.71;99657.81;4958343;28;20046;-46
2022/08/15 04:41:30;;;;;;;8.90;6.80;;;;;;;18.60;78.95;99651.00;4967336;28;20131;-45
2022/08/15 04:44:03;;;;;;;8.52;6.85;;;;;;;18.58;78.89;99651.44;4954436;28;20047;-48
2022/08/15 04:46:30;;;;;;;10.70;7.95;;;;;;;18.57;79.05;99655.44;4967790;28;20053;-48
2022/08/15 04:48:57;;;;;;;8.95;7.68;;;;;;;18.59;78.93;99658.59;4970729;28;20051;-50
2022/08/15 04:51:27;;;;;;;8.77;7.47;;;;;;;18.60;78.65;99668.63;4969059;28;20049;-46
2022/08/15 04:54:04;;;;;;;8.70;7.63;;;;;;;18.57;78.93;99666.66;4967558;28;20504;-46
2022/08/15 04:56:31;;;;;;;8.93;7.00;;;;;;;18.57;79.03;99663.84;4967644;28;20058;-47
2022/08/15 04:59:19;;;;;;;9.38;8.18;;;;;;;18.55;79.00;99663.50;4968046;28;20046;-45
2022/08/15 05:02:05;;;;;;;11.23;8.65;;;;;;;18.55;79.00;99660.69;4969487;28;20097;-44
2022/08/15 05:04:52;;;;;;;11.43;7.95;;;;;;;18.55;78.84;99668.31;4962069;28;20057;-44
2022/08/15 05:07:21;;;;;;;11.90;8.13;;;;;;;18.48;78.91;99662.81;4965148;28;20567;-51
2022/08/15 05:09:57;;;;;;;7.82;6.65;;;;;;;18.44;79.02;99660.03;4968256;28;20081;-46
2022/08/15 05:12:36;;;;;;;8.30;6.35;;;;;;;18.45;78.59;99669.25;4964218;28;20081;-48
2022/08/15 05:15:07;;;;;;;9.68;6.38;;;;;;;18.42;78.49;99651.25;4967420;28;20145;-52
2022/08/15 05:17:36;;;;;;;8.83;6.77;;;;;;;18.42;78.42;99656.88;4958738;28;20061;-47
2022/08/15 05:20:23;;;;;;;9.23;6.47;;;;;;;18.41;78.43;99648.88;4966944;28;20439;-47
2022/08/15 05:22:53;;;;;;;7.30;6.25;;;;;;;18.39;78.38;99648.50;4965404;28;20043;-45
2022/08/15 05:25:21;;;;;;;8.27;6.50;;;;;;;18.36;78.46;99644.53;4965412;28;20039;-45
2022/08/15 05:27:52;;;;;;;6.63;5.30;;;;;;;18.35;78.35;99647.78;4967843;28;20113;-52
2022/08/15 05:30:22;;;;;;;7.35;5.90;;;;;;;18.35;78.32;99651.34;4968020;28;20085;-44
2022/08/15 05:33:22;;;;;;;6.80;6.10;;;;;;;18.39;78.28;99649.31;4964720;28;20042;-48
2022/08/15 05:36:09;;;;;;;6.45;5.85;;;;;;;18.37;78.03;99650.94;4965727;28;20051;-45
2022/08/15 05:38:58;;;;;;;8.60;6.30;;;;;;;18.30;78.03;99660.25;4964250;28;20548;-43
2022/08/15 05:41:25;;;;;;;8.52;7.40;;;;;;;18.36;78.08;99661.34;4963528;28;20066;-43
2022/08/15 05:43:56;;;;;;;8.73;7.53;;;;;;;18.39;78.10;99657.72;4968479;28;20123;-43
2022/08/15 05:46:43;;;;;;;9.23;6.97;;;;;;;18.36;78.26;99666.16;4966922;28;20154;-45
2022/08/15 05:49:33;;;;;;;11.38;7.78;;;;;;;18.32;78.53;99671.03;4969582;28;20130;-48
2022/08/15 05:52:21;;;;;;;8.80;7.63;;;;;;;18.35;78.45;99668.16;4967431;28;20405;-45
2022/08/15 05:55:09;;;;;;;11.63;8.40;;;;;;;18.32;78.52;99657.81;4966693;28;20065;-47
2022/08/15 05:58:07;;;;;;;9.15;7.47;;;;;;;18.28;78.51;99665.47;4967733;28;20089;-44
2022/08/15 06:01:21;;;;;;;7.55;6.65;;;;;;;18.27;78.85;99664.69;4964554;28;20130;-46
2022/08/15 06:04:17;;;;;;;12.45;7.00;;;;;;;18.29;78.70;99664.28;4968770;28;20035;-45
2022/08/15 06:07:01;;;;;;;10.90;8.23;;;;;;;18.28;78.66;99668.28;4945870;28;20067;-48
2022/08/15 06:09:51;;;;;;;11.68;7.82;;;;;;;18.27;79.17;99675.09;4966539;28;20046;-44
2022/08/15 06:12:44;;;;;;;9.00;8.10;;;;;;;18.27;79.24;99675.09;4966861;28;20429;-43
2022/08/15 06:15:22;;;;;;;9.25;8.10;;;;;;;18.24;79.04;99665.53;4957982;28;20406;-43
2022/08/15 06:17:55;;;;;;;12.45;9.25;;;;;;;18.19;79.25;99668.00;4968420;28;20039;-42
2022/08/15 06:20:46;;;;;;;8.50;7.53;;;;;;;18.17;79.45;99676.84;4970238;28;20466;-44
2022/08/15 06:23:46;;;;;;;10.80;7.43;;;;;;;18.18;79.49;99677.66;4970981;28;20555;-43
2022/08/15 06:26:37;;;;;;;9.52;7.13;;;;;;;18.15;79.43;99672.88;4970925;28;20049;-44
2022/08/15 06:29:16;;;;;;;10.90;8.18;;;;;;;18.15;79.85;99682.09;4969380;28;20070;-41
2022/08/15 06:32:04;;;;;;;9.02;7.85;;;;;;;18.14;80.05;99688.09;4967095;28;20065;-46
2022/08/15 06:35:34;;;;;;;9.60;7.88;;;;;;;18.17;80.24;99704.06;4969664;28;20039;-44
2022/08/15 06:38:14;;;;;;;12.85;8.65;;;;;;;18.14;80.37;99691.69;4971453;28;20046;-44
2022/08/15 06:41:06;;;;;;;7.97;6.47;;;;;;;18.17;80.48;99692.84;4967569;28;20062;-49
2022/08/15 06:43:34;;;;;;;9.55;6.70;;;;;;;18.23;80.58;99696.78;4966342;28;20039;-44
2022/08/15 06:46:05;;;;;;;9.57;8.05;;;;;;;18.30;80.54;99691.06;4969807;28;20050;-43
2022/08/15 06:48:51;;;;;;;11.35;7.10;;;;;;;18.30;80.60;99695.88;4960872;28;20066;-46
2022/08/15 06:51:35;;;;;;;7.53;6.55;;;;;;;18.35;80.53;99687.00;4970720;28;20039;-42
2022/08/15 06:54:17;;;;;;;10.05;8.45;;;;;;;18.39;80.42;99688.53;4962999;28;20047;-47
2022/08/15 06:57:15;;;;;;;13.10;8.50;;;;;;;18.38;80.32;99692.53;4968855;28;20042;-49
2022/08/15 06:59:50;;;;;;;10.07;7.43;;;;;;;18.40;80.46;99684.50;4976738;28;20411;-44
2022/08/15 07:03:05;;;;;;;13.43;7.70;;;;;;;18.41;80.67;99686.09;4968534;28;20051;-44
2022/08/15 07:05:43;;;;;;;14.05;8.05;;;;;;;18.42;80.81;99682.09;4972068;28;20051;-50
2022/08/15 07:08:17;;;;;;;10.57;8.23;;;;;;;18.46;80.94;99677.22;4972273;28;20487;-45
2022/08/15 07:10:48;;;;;;;12.05;8.63;;;;;;;18.50;80.86;99683.59;4964666;28;20061;-48
2022/08/15 07:13:26;;;;;;;7.32;6.55;;;;;;;18.54;81.06;99686.31;4944066;29;20062;-48
2022/08/15 07:16:22;;;;;;;9.30;7.43;;;;;;;18.58;81.14;99679.47;4966852;28;20493;-44
2022/08/15 07:18:58;;;;;;;11.70;7.75;;;;;;;18.61;81.04;99672.97;4972069;28;20098;-43
2022/08/15 07:21:25;;;;;;;9.48;8.18;;;;;;;18.66;80.71;99686.53;4971725;28;20093;-44
2022/08/15 07:24:18;;;;;;;11.10;8.23;;;;;;;18.71;81.10;99672.03;4971437;28;20047;-43
2022/08/15 07:27:04;;;;;;;9.07;7.35;;;;;;;18.74;81.28;99679.56;4966781;28;20054;-48
2022/08/15 07:29:58;;;;;;;10.18;7.57;;;;;;;18.80;81.07;99674.28;4970067;28;20093;-44
2022/08/15 07:32:53;;;;;;;9.82;7.13;;;;;;;18.85;81.23;99671.78;4966009;28;20484;-44
2022/08/15 07:35:35;;;;;;;13.80;8.65;;;;;;;18.92;81.11;99670.06;4963751;28;20079;-45
2022/08/15 07:38:06;;;;;;;13.95;9.02;;;;;;;18.99;81.10;99669.94;4966287;28;20057;-47
2022/08/15 07:40:51;;;;;;;12.10;8.70;;;;;;;19.07;81.16;99677.81;4964047;28;20073;-47
2022/08/15 07:43:32;;;;;;;11.55;8.40;;;;;;;19.17;80.75;99679.63;4963566;28;20047;-43
2022/08/15 07:46:07;;;;;;;12.52;9.73;;;;;;;19.28;80.88;99677.41;4966556;28;20436;-48
2022/08/15 07:48:59;;;;;;;8.70;7.80;;;;;;;19.36;80.52;99678.88;4969326;28;20078;-45
2022/08/15 07:51:39;;;;;;;10.38;8.88;;;;;;;19.48;80.21;99690.72;4962859;28;20055;-44
2022/08/15 07:54:24;;;;;;;20.02;12.77;;;;;;;19.60;80.16;99679.63;4966675;28;20042;-45
2022/08/15 07:57:33;;;;;;;15.75;11.20;;;;;;;19.73;79.83;99688.97;4958179;28;20039;-47
2022/08/15 08:00:27;;;;;;;12.30;9.55;;;;;;;19.78;79.80;99682.84;4962206;28;20053;-44
2022/08/15 08:03:27;;;;;;;10.27;7.05;;;;;;;19.87;79.52;99683.06;4946110;28;20051;-45
2022/08/15 08:06:12;;;;;;;13.82;8.57;;;;;;;19.96;79.55;99686.06;4942806;28;20058;-41
2022/08/15 08:09:26;;;;;;;9.15;6.43;;;;;;;20.02;79.08;99692.78;4946288;28;20043;-46
2022/08/15 08:12:49;;;;;;;10.90;6.20;;;;;;;20.13;78.93;99681.31;4947823;28;20043;-48
2022/08/15 08:15:32;;;;;;;11.05;6.47;;;;;;;20.26;79.37;99687.06;4944186;28;20631;-47
2022/08/15 08:18:14;;;;;;;10.68;6.05;;;;;;;20.41;79.25;99688.34;4935554;29;20509;-44
2022/08/15 08:21:11;;;;;;;11.98;6.78;;;;;;;20.60;79.45;99685.44;4944412;29;20043;-48
2022/08/15 08:23:45;;;;;;;9.88;5.25;;;;;;;20.72;77.81;99688.78;4925204;29;20418;-46
2022/08/15 08:26:22;;;;;;;7.30;5.70;;;;;;;20.74;76.82;99692.75;4944289;29;20375;-49
2022/08/15 08:29:15;;;;;;;14.50;7.05;;;;;;;20.72;75.91;99705.66;4946667;29;20043;-46
2022/08/15 08:32:00;;;;;;;10.75;5.88;;;;;;;20.72;75.53;99703.66;4944660;29;20043;-44
2022/08/15 08:35:09;;;;;;;6.75;4.93;;;;;;;20.76;74.68;99718.41;4941736;29;20046;-44
2022/08/15 08:37:48;;;;;;;8.63;5.70;;;;;;;20.72;74.37;99714.91;4942949;29;20405;-43
2022/08/15 08:44:02;;;;;;;7.72;6.18;;;;;;;20.85;73.53;99704.53;4943612;29;20039;-46
2022/08/15 08:47:23;;;;;;;9.10;5.82;;;;;;;20.92;73.29;99709.97;4941558;29;20051;-44
2022/08/15 08:50:21;;;;;;;8.63;6.10;;;;;;;20.95;73.28;99717.53;4946757;28;20469;-50
2022/08/15 08:53:11;;;;;;;7.10;5.28;;;;;;;20.99;73.05;99721.06;4949359;29;20621;-49
2022/08/15 08:55:58;;;;;;;5.45;4.75;;;;;;;21.01;72.85;99712.97;4938573;29;20054;-47
2022/08/15 08:58:36;;;;;;;6.88;5.13;;;;;;;21.03;72.61;99713.31;4941115;28;20051;-44
2022/08/15 09:01:16;;;;;;;6.38;4.88;;;;;;;21.06;72.23;99714.44;4951713;28;20053;-42
2022/08/15 09:03:56;;;;;;;8.02;6.10;;;;;;;21.14;71.82;99716.69;4963088;28;20798;-43
2022/08/15 09:06:31;;;;;;;7.35;4.57;;;;;;;21.18;71.88;99710.97;4965591;28;20078;-44
2022/08/15 09:09:15;;;;;;;8.60;5.03;;;;;;;21.31;71.57;99719.47;4962782;28;20465;-43
2022/08/15 09:11:55;;;;;;;5.22;4.47;;;;;;;21.69;71.31;99717.59;4960311;28;20043;-42
2022/08/15 09:14:22;;;;;;;6.55;4.22;;;;;;;22.85;70.26;99713.28;4967212;28;20400;-43
2022/08/15 09:17:20;;;;;;;6.65;4.68;;;;;;;24.40;67.83;99719.00;4967176;28;20054;-44
2022/08/15 09:20:06;;;;;;;6.75;4.80;;;;;;;25.57;65.11;99714.97;4969567;28;20547;-46
2022/08/15 09:22:38;;;;;;;6.25;4.20;;;;;;;26.57;61.68;99729.00;4964022;28;20046;-48
2022/08/15 09:25:06;;;;;;;7.53;4.20;;;;;;;27.41;58.49;99724.00;4963589;28;20512;-44
2022/08/15 09:27:48;;;;;;;7.63;4.82;;;;;;;27.78;56.60;99733.03;4960674;28;20058;-45
2022/08/15 09:30:26;;;;;;;6.07;4.47;;;;;;;27.61;55.63;99727.03;4963554;28;20058;-45
2022/08/15 09:33:50;;;;;;;5.75;4.75;;;;;;;27.68;55.39;99731.53;4964355;28;20117;-41
2022/08/15 09:36:29;;;;;;;5.88;4.30;;;;;;;27.84;54.09;99725.38;4959116;28;20628;-43
2022/08/15 09:39:04;;;;;;;5.72;4.30;;;;;;;28.11;53.09;99730.84;4961480;28;20054;-45
2022/08/15 09:41:53;;;;;;;5.50;3.42;;;;;;;28.19;52.44;99737.72;4960570;28;20129;-46
2022/08/15 09:44:34;;;;;;;5.60;3.40;;;;;;;28.45;51.56;99732.22;4948761;28;20047;-43
2022/08/15 09:47:10;;;;;;;5.03;3.60;;;;;;;29.05;50.01;99734.47;4967721;28;20055;-44
2022/08/15 09:49:57;;;;;;;4.72;3.42;;;;;;;29.72;48.52;99729.69;4964481;28;20431;-43
2022/08/15 09:52:37;;;;;;;3.85;3.35;;;;;;;30.16;46.46;99741.59;4970093;28;20039;-46
2022/08/15 09:55:34;;;;;;;4.95;3.97;;;;;;;30.39;45.74;99731.22;4964296;28;20073;-42
2022/08/15 09:58:20;;;;;;;4.45;3.47;;;;;;;30.60;45.08;99738.44;4973313;28;20130;-43
2022/08/15 10:01:08;;;;;;;3.55;3.25;;;;;;;30.93;44.19;99740.75;4972247;28;20109;-44
2022/08/15 10:03:44;;;;;;;6.38;3.10;;;;;;;31.12;43.44;99734.13;4970415;28;20438;-46
2022/08/15 10:06:25;;;;;;;3.17;2.95;;;;;;;31.33;42.21;99734.78;4967556;28;20050;-49
2022/08/15 10:09:14;;;;;;;5.70;3.13;;;;;;;31.63;42.14;99735.19;4971531;28;20043;-43
2022/08/15 10:11:41;;;;;;;4.15;2.42;;;;;;;31.95;40.65;99742.34;4964954;28;20097;-44
2022/08/15 10:14:20;;;;;;;3.65;2.72;;;;;;;32.00;40.20;99743.69;4977039;28;20035;-44
2022/08/15 10:16:52;;;;;;;2.58;2.38;;;;;;;31.63;39.13;99743.78;4971587;28;20051;-48
2022/08/15 10:19:38;;;;;;;2.95;2.75;;;;;;;30.71;40.49;99735.66;4972568;28;20051;-45
2022/08/15 10:22:25;;;;;;;4.38;3.40;;;;;;;29.93;42.05;99739.81;4970515;28;20125;-44
2022/08/15 10:25:17;;;;;;;5.72;3.80;;;;;;;29.13;43.63;99741.34;4972300;28;20039;-46
2022/08/15 10:28:22;;;;;;;3.20;3.00;;;;;;;28.73;44.23;99735.53;4972537;28;20039;-44
2022/08/15 10:31:07;;;;;;;4.18;3.42;;;;;;;28.75;43.51;99745.16;4921123;29;20058;-44
2022/08/15 10:33:42;;;;;;;4.75;3.08;;;;;;;28.46;44.96;99741.56;4965404;28;20820;-44
2022/08/15 10:36:36;;;;;;;4.88;3.80;;;;;;;28.19;44.57;99743.41;4963231;28;20061;-45
2022/08/15 10:39:36;;;;;;;4.55;3.40;;;;;;;28.17;45.05;99736.66;4973157;28;20039;-44
2022/08/15 10:42:25;;;;;;;6.68;3.78;;;;;;;28.90;43.84;99731.69;4972174;28;20046;-42
2022/08/15 10:45:16;;;;;;;4.20;3.10;;;;;;;29.56;42.33;99733.91;4972850;28;20153;-45
2022/08/15 10:48:22;;;;;;;4.50;3.40;;;;;;;30.06;41.39;99728.78;4972475;28;20074;-47
2022/08/15 10:51:34;;;;;;;7.55;2.80;;;;;;;30.06;41.25;99734.50;4965466;28;20105;-44
2022/08/15 10:54:32;;;;;;;4.15;2.92;;;;;;;29.93;41.28;99728.41;4968865;28;20093;-45
2022/08/15 10:57:06;;;;;;;5.20;2.97;;;;;;;29.66;41.13;99731.69;4972329;28;20492;-48
2022/08/15 10:59:41;;;;;;;2.65;2.45;;;;;;;29.01;41.56;99733.91;4972739;28;20057;-48
2022/08/15 11:02:41;;;;;;;5.57;3.28;;;;;;;28.35;42.09;99717.31;4971225;28;20051;-48
2022/08/15 11:05:17;;;;;;;3.20;2.88;;;;;;;27.88;43.14;99717.44;4972884;28;20484;-45
2022/08/15 11:07:50;;;;;;;5.05;2.88;;;;;;;27.54;44.56;99718.03;4972543;28;20058;-52
2022/08/15 11:10:27;;;;;;;2.97;2.67;;;;;;;27.24;44.89;99720.00;4964893;28;20137;-45
2022/08/15 11:12:57;;;;;;;7.00;3.23;;;;;;;26.87;46.26;99722.28;4954395;28;20134;-48
2022/08/15 11:15:54;;;;;;;5.55;4.07;;;;;;;26.29;47.20;99716.16;4969806;28;20130;-48
2022/08/15 11:18:49;;;;;;;5.55;3.35;;;;;;;25.54;48.89;99721.56;4965542;28;20047;-45
2022/08/15 11:21:44;;;;;;;7.93;3.90;;;;;;;24.87;50.46;99729.28;4971344;28;20070;-46
2022/08/15 11:24:11;;;;;;;4.93;3.53;;;;;;;24.29;50.96;99724.28;4971866;28;20125;-47
2022/08/15 11:26:45;;;;;;;4.43;3.75;;;;;;;23.77;51.58;99721.41;4969346;28;20512;-45
2022/08/15 11:29:24;;;;;;;5.05;3.40;;;;;;;23.37;52.49;99727.69;4971852;28;20047;-46
2022/08/15 11:31:58;;;;;;;3.42;3.13;;;;;;;23.10;53.18;99735.84;4972255;28;20054;-49
2022/08/15 11:34:47;;;;;;;3.25;2.83;;;;;;;22.87;54.01;99734.19;4971055;28;20050;-46
2022/08/15 11:37:22;;;;;;;3.47;3.10;;;;;;;22.68;54.54;99742.88;4965101;28;20050;-44
2022/08/15 11:40:07;;;;;;;7.43;4.35;;;;;;;22.45;54.82;99746.81;4968687;28;20145;-43
2022/08/15 11:42:40;;;;;;;4.63;3.85;;;;;;;22.26;55.07;99750.59;4949233;28;20082;-51
2022/08/15 11:45:33;;;;;;;5.03;3.58;;;;;;;22.03;55.89;99754.47;4959318;28;20074;-52
2022/08/15 11:48:24;;;;;;;5.22;3.28;;;;;;;21.85;56.43;99760.59;4972984;28;20051;-45
2022/08/15 11:51:26;;;;;;;5.05;4.03;;;;;;;21.68;57.80;99778.00;4971556;28;20088;-48
2022/08/15 11:54:00;;;;;;;4.50;4.10;;;;;;;21.44;58.67;99771.81;4954631;28;20054;-45
2022/08/15 11:56:42;;;;;;;10.23;5.28;;;;;;;21.32;59.74;99778.16;4971135;28;20042;-47
2022/08/15 11:59:23;;;;;;;9.60;5.55;;;;;;;21.14;61.05;99795.50;4971235;28;20315;-47
2022/08/15 12:02:07;;;;;;;14.18;7.32;;;;;;;20.99;62.85;99794.22;4969720;28;20524;-48
2022/08/15 12:04:42;;;;;;;18.27;7.88;;;;;;;20.83;63.73;99799.84;4954012;28;20038;-50
2022/08/15 12:07:30;;;;;;;11.25;8.07;;;;;;;20.68;64.59;99804.19;4971540;28;20050;-47
2022/08/15 12:10:07;;;;;;;12.93;9.18;;;;;;;20.57;65.77;99801.63;4970953;28;20405;-47
2022/08/15 12:12:54;;;;;;;17.92;9.00;;;;;;;20.48;66.46;99792.19;4961009;28;20047;-55
2022/08/15 12:15:34;;;;;;;28.88;10.25;;;;;;;20.40;67.64;99804.81;4970849;28;20542;-49
2022/08/15 12:18:08;;;;;;;13.30;10.07;;;;;;;20.27;68.64;99817.97;4970502;28;20489;-45
2022/08/15 12:20:55;;;;;;;20.23;10.38;;;;;;;20.23;69.76;99820.00;4970563;28;20049;-42
2022/08/15 12:23:26;;;;;;;18.25;12.52;;;;;;;20.21;70.43;99814.03;4953647;28;20522;-43
2022/08/15 12:26:00;;;;;;;15.25;11.57;;;;;;;20.26;71.03;99813.56;4970689;28;20504;-42
2022/08/15 12:28:47;;;;;;;14.63;10.20;;;;;;;20.27;71.45;99803.91;4970522;28;20054;-43
2022/08/15 12:31:36;;;;;;;15.60;12.10;;;;;;;20.34;72.01;99803.75;4970874;28;20074;-44
2022/08/15 12:34:19;;;;;;;9.35;7.13;;;;;;;20.40;72.03;99796.41;4970908;28;20039;-45
2022/08/15 12:37:03;;;;;;;12.85;9.68;;;;;;;20.44;72.16;99797.88;4967821;28;20063;-47
2022/08/15 12:39:39;;;;;;;11.65;10.38;;;;;;;20.46;72.24;99801.09;4971148;28;20050;-51
2022/08/15 12:42:14;;;;;;;12.20;10.10;;;;;;;20.53;72.88;99802.94;4970369;28;20051;-46
2022/08/15 12:45:13;;;;;;;14.20;10.68;;;;;;;20.61;73.21;99799.53;4969834;28;20050;-42
2022/08/15 12:47:42;;;;;;;15.57;12.15;;;;;;;20.76;73.35;99804.84;4952267;28;20121;-45